createdAt,value
2022-08-28T05:05:38.763Z,17.90
2022-08-28T05:08:05.752Z,17.90
2022-08-28T05:10:32.750Z,17.80
2022-08-28T05:12:59.787Z,17.80
2022-08-28T05:15:26.816Z,17.80
2022-08-28T05:17:53.786Z,17.80
2022-08-28T05:20:21.194Z,17.80
2022-08-28T05:22:48.226Z,17.80
2022-08-28T05:25:15.694Z,17.90
2022-08-28T05:27:42.710Z,17.90
2022-08-28T05:30:10.779Z,17.90
2022-08-28T05:32:38.012Z,18.00
2022-08-28T05:35:05.510Z,18.00
2022-08-28T05:37:32.557Z,18.10
2022-08-28T05:40:00.357Z,18.20
2022-08-28T05:42:30.978Z,18.30
2022-08-28T05:44:59.695Z,18.40
2022-08-28T05:47:26.685Z,18.40
2022-08-28T05:49:53.751Z,18.50
2022-08-28T05:52:20.834Z,18.40
2022-08-28T05:54:48.189Z,18.50
2022-08-28T05:57:15.170Z,18.60
2022-08-28T05:59:42.436Z,18.70
2022-08-28T06:02:09.693Z,18.80
2022-08-28T06:04:40.416Z,18.80
2022-08-28T06:07:08.307Z,19.00
2022-08-28T06:09:35.368Z,19.00
2022-08-28T06:12:02.987Z,19.20
2022-08-28T06:14:30.115Z,19.20
2022-08-28T06:16:57.351Z,19.20
2022-08-28T06:19:25.482Z,19.30
2022-08-28T06:21:55.097Z,19.30
2022-08-28T06:24:22.539Z,19.30
2022-08-28T06:26:49.567Z,19.20
2022-08-28T06:29:18.598Z,19.20
2022-08-28T06:31:48.546Z,19.20
2022-08-28T06:34:15.788Z,19.30
2022-08-28T06:36:43.096Z,19.30
2022-08-28T06:39:11.029Z,19.30
2022-08-28T06:41:43.288Z,19.40
2022-08-28T06:44:12.749Z,19.50
2022-08-28T06:46:39.946Z,19.60
2022-08-28T06:49:07.746Z,19.70
2022-08-28T06:51:35.394Z,19.80
2022-08-28T06:54:02.520Z,19.80
2022-08-28T06:56:30.003Z,20.00
2022-08-28T06:58:57.711Z,20.10
2022-08-28T07:01:29.787Z,20.20
2022-08-28T07:03:59.686Z,20.20
2022-08-28T07:06:27.198Z,20.30
2022-08-28T07:08:54.284Z,20.40
2022-08-28T07:11:26.354Z,20.50
2022-08-28T07:13:53.799Z,20.50
2022-08-28T07:16:22.724Z,20.60
2022-08-28T07:18:49.743Z,20.70
2022-08-28T07:21:16.856Z,20.80
2022-08-28T07:23:44.593Z,21.00
2022-08-28T07:26:14.483Z,21.10
2022-08-28T07:28:41.547Z,21.10
2022-08-28T07:31:11.184Z,21.20
2022-08-28T07:33:39.747Z,21.30
2022-08-28T07:36:15.593Z,21.50
2022-08-28T07:38:43.133Z,21.70
2022-08-28T07:41:15.397Z,21.90
2022-08-28T07:44:01.391Z,22.10
2022-08-28T07:46:29.441Z,22.30
2022-08-28T07:48:58.896Z,22.30
2022-08-28T07:51:27.203Z,22.40
2022-08-28T07:53:59.371Z,22.30
2022-08-28T07:56:28.010Z,22.40
2022-08-28T07:58:56.666Z,22.40
2022-08-28T08:01:24.179Z,22.40
2022-08-28T08:03:51.646Z,22.40
2022-08-28T08:06:33.760Z,22.30
2022-08-28T08:09:02.138Z,22.50
2022-08-28T08:11:32.283Z,22.50
2022-08-28T08:14:04.817Z,22.70
2022-08-28T08:16:34.879Z,22.90
2022-08-28T08:19:02.059Z,23.10
2022-08-28T08:21:30.409Z,23.20
2022-08-28T08:23:58.032Z,23.00
2022-08-28T08:26:26.300Z,23.00
2022-08-28T08:28:53.397Z,23.00
2022-08-28T08:31:26.628Z,23.00
2022-08-28T08:33:59.171Z,23.00
2022-08-28T08:36:26.706Z,23.00
2022-08-28T08:38:59.421Z,23.00
2022-08-28T08:41:48.398Z,23.00
2022-08-28T08:44:23.576Z,23.00
2022-08-28T08:47:13.203Z,23.10
2022-08-28T08:50:08.867Z,23.40
2022-08-28T08:53:02.839Z,23.60
2022-08-28T08:55:40.584Z,23.60
2022-08-28T08:58:29.399Z,23.50
2022-08-28T09:01:23.514Z,23.50
2022-08-28T09:03:55.880Z,23.50
2022-08-28T09:06:43.873Z,23.40
2022-08-28T09:09:33.911Z,23.40
2022-08-28T09:12:03.931Z,23.50
2022-08-28T09:14:38.242Z,23.50
2022-08-28T09:17:06.031Z,23.60
2022-08-28T09:19:33.081Z,23.60
2022-08-28T09:22:00.261Z,23.80
2022-08-28T09:24:29.670Z,23.90
2022-08-28T09:27:00.495Z,24.10
2022-08-28T09:29:38.793Z,24.20
2022-08-28T09:32:27.750Z,24.40
2022-08-28T09:35:03.366Z,24.40
2022-08-28T09:37:32.981Z,24.40
2022-08-28T09:40:19.050Z,24.30
2022-08-28T09:43:30.285Z,24.00
2022-08-28T09:49:39.124Z,23.90
2022-08-28T09:59:50.105Z,24.30
2022-08-28T10:02:52.691Z,24.70
2022-08-28T10:05:46.822Z,24.70
2022-08-28T10:21:22.270Z,24.00
2022-08-28T10:24:29.131Z,24.10
2022-08-28T10:27:25.834Z,24.30
2022-08-28T10:30:20.933Z,24.30
2022-08-28T11:21:39.615Z,24.50
2022-08-28T11:24:25.955Z,24.30
2022-08-28T11:27:17.188Z,24.10
2022-08-28T11:30:11.529Z,24.00
2022-08-28T11:32:51.904Z,24.10
2022-08-28T11:35:31.907Z,24.00
2022-08-28T11:37:58.901Z,23.90
2022-08-28T11:40:31.966Z,24.00
2022-08-28T11:43:21.132Z,23.90
2022-08-28T11:45:50.888Z,23.60
2022-08-28T11:51:45.228Z,24.00
2022-08-28T11:54:52.072Z,23.80
2022-08-28T11:57:45.239Z,24.10
2022-08-28T12:00:25.264Z,24.30
2022-08-28T12:03:10.199Z,24.70
2022-08-28T12:05:49.928Z,25.10
2022-08-28T12:08:45.036Z,25.50
2022-08-28T12:17:32.675Z,26.50
2022-08-28T12:20:10.038Z,26.80
2022-08-28T12:22:47.511Z,26.90
2022-08-28T12:25:44.331Z,27.30
2022-08-28T12:28:26.248Z,27.40
2022-08-28T12:31:13.612Z,27.00
2022-08-28T12:33:48.344Z,27.20
2022-08-28T12:36:16.816Z,27.20
2022-08-28T12:51:49.763Z,27.00
2022-08-28T12:54:17.804Z,26.50
2022-08-28T12:56:44.841Z,26.20
2022-08-28T12:59:34.634Z,26.00
2022-08-28T13:02:10.591Z,26.40
2022-08-28T13:05:05.083Z,26.20
2022-08-28T13:07:59.425Z,26.40
2022-08-28T13:10:34.395Z,26.70
2022-08-28T13:24:29.290Z,26.10
2022-08-28T13:27:20.971Z,25.90
2022-08-28T13:30:09.164Z,25.80
2022-08-28T13:32:38.000Z,26.00
2022-08-28T13:35:23.631Z,26.20
2022-08-28T13:37:52.490Z,26.30
2022-08-28T13:43:13.659Z,26.50
2022-08-28T13:45:44.861Z,26.20
2022-08-28T13:48:13.464Z,25.50
2022-08-28T13:50:42.070Z,26.10
2022-08-28T13:53:12.205Z,26.00
2022-08-28T13:55:39.628Z,26.00
2022-08-28T13:58:06.955Z,26.40
2022-08-28T14:00:36.690Z,26.70
2022-08-28T14:03:22.354Z,26.90
2022-08-28T14:05:49.404Z,26.80
2022-08-28T14:08:16.426Z,26.30
2022-08-28T14:10:43.449Z,25.60
2022-08-28T14:13:10.522Z,25.00
2022-08-28T14:15:37.513Z,24.70
2022-08-28T14:18:05.545Z,24.80
2022-08-28T14:20:32.845Z,24.50
2022-08-28T14:23:00.197Z,24.80
2022-08-28T14:25:27.550Z,24.70
2022-08-28T14:27:56.088Z,25.00
2022-08-28T14:30:23.344Z,25.00
2022-08-28T14:32:50.387Z,25.10
2022-08-28T14:35:17.408Z,24.90
2022-08-28T14:37:44.585Z,24.60
2022-08-28T14:40:12.848Z,24.70
2022-08-28T14:42:41.951Z,24.70
2022-08-28T14:45:09.372Z,24.90
2022-08-28T14:47:39.284Z,24.60
2022-08-28T14:50:06.866Z,24.30
2022-08-28T14:52:33.981Z,24.00
2022-08-28T14:55:00.911Z,24.00
2022-08-28T14:57:27.936Z,23.70
2022-08-28T14:59:55.047Z,23.60
2022-08-28T15:02:21.974Z,23.40
2022-08-28T15:04:48.940Z,23.10
2022-08-28T15:07:15.971Z,23.10
2022-08-28T15:09:43.085Z,23.00
2022-08-28T15:12:12.862Z,23.10
2022-08-28T15:14:39.847Z,23.20
2022-08-28T15:17:07.502Z,23.10
2022-08-28T15:19:34.480Z,23.10
2022-08-28T15:22:02.198Z,23.20
2022-08-28T15:24:31.573Z,23.20
2022-08-28T15:26:59.827Z,23.30
2022-08-28T15:29:28.239Z,23.30
2022-08-28T15:31:55.540Z,23.20
2022-08-28T15:34:24.071Z,22.90
2022-08-28T15:36:55.645Z,22.60
2022-08-28T15:39:42.798Z,22.40
2022-08-28T15:42:10.454Z,22.30
2022-08-28T15:44:37.625Z,22.20
2022-08-28T15:47:05.099Z,22.20
2022-08-28T15:49:33.002Z,22.20
2022-08-28T15:52:06.651Z,22.00
2022-08-28T15:54:33.598Z,21.80
2022-08-28T15:57:00.616Z,21.60
2022-08-28T15:59:38.053Z,21.50
2022-08-28T16:02:14.685Z,21.60
2022-08-28T16:04:41.742Z,21.70
2022-08-28T16:07:08.733Z,21.60
2022-08-28T16:09:35.811Z,21.70
2022-08-28T16:12:02.885Z,21.70
2022-08-28T16:14:32.879Z,21.80
2022-08-28T16:17:00.199Z,21.70
2022-08-28T16:19:33.124Z,21.60
2022-08-28T16:22:00.466Z,21.50
2022-08-28T16:24:27.446Z,21.20
2022-08-28T16:26:54.368Z,21.40
2022-08-28T16:29:21.361Z,21.30
2022-08-28T16:31:51.579Z,21.30
2022-08-28T16:34:19.427Z,21.30
2022-08-28T16:36:48.340Z,21.20
2022-08-28T16:39:15.507Z,21.30
2022-08-28T16:41:43.277Z,21.30
2022-08-28T16:44:10.283Z,21.20
2022-08-28T16:46:37.407Z,21.10
2022-08-28T16:49:04.392Z,21.00
2022-08-28T16:51:31.747Z,21.00
2022-08-28T16:53:58.815Z,21.00
2022-08-28T16:56:26.732Z,21.00
2022-08-28T16:58:53.831Z,20.90
2022-08-28T17:01:24.252Z,21.30
2022-08-28T17:03:53.073Z,20.90
2022-08-28T17:06:23.577Z,20.90
2022-08-28T17:08:55.898Z,20.90
2022-08-28T17:11:24.649Z,21.00
2022-08-28T17:13:51.555Z,20.90
2022-08-28T17:16:18.763Z,20.70
2022-08-28T17:18:48.135Z,20.70
2022-08-28T17:21:37.771Z,20.70
2022-08-28T17:24:05.072Z,20.70
2022-08-28T17:26:32.011Z,20.70
2022-08-28T17:32:46.799Z,20.60
2022-08-28T17:35:14.985Z,20.60
2022-08-28T17:37:42.071Z,20.50
2022-08-28T17:40:13.234Z,20.50
2022-08-28T17:42:40.703Z,20.40
2022-08-28T17:45:08.615Z,20.30
2022-08-28T17:47:35.601Z,20.40
2022-08-28T17:50:02.978Z,20.30
2022-08-28T17:52:30.262Z,20.20
2022-08-28T17:54:57.898Z,20.30
2022-08-28T17:57:25.126Z,20.20
2022-08-28T17:59:52.312Z,20.20
2022-08-28T18:02:19.500Z,20.20
2022-08-28T18:04:46.960Z,20.20
2022-08-28T18:07:14.123Z,20.10
2022-08-28T18:09:41.393Z,20.20
2022-08-28T18:12:12.746Z,20.10
2022-08-28T18:14:39.980Z,20.10
2022-08-28T18:17:07.099Z,20.10
2022-08-28T18:19:37.030Z,20.00
2022-08-28T18:22:04.101Z,20.00
2022-08-28T18:24:32.023Z,20.10
2022-08-28T18:26:59.165Z,20.00
2022-08-28T18:29:27.186Z,20.00
2022-08-28T18:31:54.467Z,20.00
2022-08-28T18:34:21.399Z,20.00
2022-08-28T18:36:49.139Z,20.00
2022-08-28T18:39:16.613Z,20.00
2022-08-28T18:41:56.343Z,20.00
2022-08-28T18:44:24.351Z,19.90
2022-08-28T18:46:51.820Z,19.80
2022-08-28T18:49:19.038Z,19.80
2022-08-28T18:51:46.040Z,19.80
2022-08-28T18:54:14.387Z,19.70
2022-08-28T18:56:44.006Z,19.60
2022-08-28T18:59:11.283Z,19.60
2022-08-28T19:01:38.415Z,19.60
2022-08-28T19:04:06.270Z,19.60
2022-08-28T19:06:33.702Z,19.60
2022-08-28T19:09:00.918Z,19.50
2022-08-28T19:11:29.531Z,19.50
2022-08-28T19:13:56.627Z,19.40
2022-08-28T19:16:23.775Z,19.40
2022-08-28T19:18:53.052Z,19.40
2022-08-28T19:21:20.560Z,19.50
2022-08-28T19:23:55.239Z,19.40
2022-08-28T19:26:26.341Z,19.40
2022-08-28T19:28:53.681Z,19.40
2022-08-28T19:31:20.977Z,19.40
2022-08-28T19:33:48.134Z,19.40
2022-08-28T19:36:15.162Z,19.20
2022-08-28T19:38:42.147Z,19.30
2022-08-28T19:41:10.478Z,19.20
2022-08-28T19:43:44.252Z,19.20
2022-08-28T19:46:18.423Z,19.30
2022-08-28T19:48:50.515Z,19.30
2022-08-28T19:51:22.582Z,19.40
2022-08-28T19:53:57.186Z,19.40
2022-08-28T19:56:27.557Z,19.30
2022-08-28T19:58:55.341Z,19.30
2022-08-28T20:01:22.338Z,19.20
2022-08-28T20:03:49.427Z,19.20
2022-08-28T20:06:16.457Z,19.10
2022-08-28T20:08:43.430Z,19.00
2022-08-28T20:11:15.478Z,19.00
2022-08-28T20:13:42.497Z,19.00
2022-08-28T20:16:10.846Z,18.90
2022-08-28T20:18:37.890Z,18.90
2022-08-28T20:21:05.021Z,18.80
2022-08-28T20:23:31.960Z,18.80
2022-08-28T20:25:58.961Z,18.70
2022-08-28T20:28:25.886Z,18.70
2022-08-28T20:30:52.849Z,18.60
2022-08-28T20:33:20.911Z,18.60
2022-08-28T20:35:48.082Z,18.70
2022-08-28T20:38:15.273Z,18.60
2022-08-28T20:40:43.071Z,18.90
2022-08-28T20:43:10.064Z,18.80
2022-08-28T20:45:36.999Z,18.60
2022-08-28T20:48:04.058Z,18.60
2022-08-28T20:50:30.976Z,18.50
2022-08-28T20:52:58.025Z,18.50
2022-08-28T20:55:25.008Z,18.50
2022-08-28T20:57:52.557Z,18.60
2022-08-28T21:00:19.664Z,18.50
2022-08-28T21:02:47.006Z,18.40
2022-08-28T21:05:14.032Z,18.30
2022-08-28T21:07:41.197Z,18.40
2022-08-28T21:10:08.527Z,18.40
2022-08-28T21:12:36.814Z,18.40
2022-08-28T21:15:06.256Z,18.40
2022-08-28T21:17:33.390Z,18.40
2022-08-28T21:20:08.289Z,18.30
2022-08-28T21:22:36.004Z,18.20
2022-08-28T21:25:07.363Z,18.20
2022-08-28T21:27:34.469Z,18.20
2022-08-28T21:30:01.694Z,18.20
2022-08-28T21:32:28.935Z,18.20
2022-08-28T21:34:56.332Z,18.10
2022-08-28T21:37:23.417Z,18.00
2022-08-28T21:39:50.912Z,18.00
2022-08-28T21:42:18.128Z,18.10
2022-08-28T21:44:51.193Z,18.00
2022-08-28T21:47:19.141Z,18.00
2022-08-28T21:49:49.595Z,17.90
2022-08-28T21:52:18.693Z,17.90
2022-08-28T21:54:45.643Z,17.80
2022-08-28T21:57:12.599Z,17.80
2022-08-28T21:59:39.572Z,17.80
2022-08-28T22:02:06.653Z,17.80
2022-08-28T22:04:33.952Z,17.90
2022-08-28T22:07:00.983Z,17.80
2022-08-28T22:09:27.982Z,17.80
2022-08-28T22:11:54.976Z,17.80
2022-08-28T22:14:25.299Z,17.80
2022-08-28T22:16:52.489Z,17.70
2022-08-28T22:19:19.647Z,17.60
2022-08-28T22:22:05.120Z,17.60
2022-08-28T22:24:32.177Z,17.60
2022-08-28T22:26:59.265Z,17.60
2022-08-28T22:29:26.314Z,17.70
2022-08-28T22:31:53.380Z,17.50
2022-08-28T22:34:20.451Z,17.40
2022-08-28T22:36:47.465Z,17.50
2022-08-28T22:39:14.512Z,17.50
2022-08-28T22:41:42.238Z,17.50
2022-08-28T22:44:10.067Z,17.50
2022-08-28T22:46:37.087Z,17.50
2022-08-28T22:49:04.425Z,17.60
2022-08-28T22:51:33.085Z,17.60
2022-08-28T22:54:00.035Z,17.50
2022-08-28T22:56:27.036Z,17.50
2022-08-28T22:58:54.632Z,17.50
2022-08-28T23:01:23.181Z,17.50
2022-08-28T23:03:50.392Z,17.50
2022-08-28T23:06:17.557Z,17.50
2022-08-28T23:08:44.564Z,17.50
2022-08-28T23:11:11.529Z,17.40
2022-08-28T23:13:38.558Z,17.40
2022-08-28T23:16:06.231Z,17.30
2022-08-28T23:18:57.555Z,17.30
2022-08-28T23:21:21.097Z,17.50
2022-08-28T23:23:48.126Z,17.20
2022-08-28T23:26:15.430Z,17.30
2022-08-28T23:28:42.677Z,17.30
2022-08-28T23:31:09.936Z,17.40
2022-08-28T23:33:37.086Z,17.30
2022-08-28T23:36:04.776Z,17.30
2022-08-28T23:38:34.737Z,17.20
2022-08-28T23:41:02.283Z,16.20
2022-08-28T23:43:29.842Z,17.20
2022-08-28T23:45:56.973Z,17.10
2022-08-28T23:48:25.070Z,17.30
2022-08-28T23:50:52.738Z,17.20
2022-08-28T23:53:19.687Z,17.30
2022-08-28T23:55:48.635Z,17.30
2022-08-28T23:58:15.949Z,17.40
